sensor_id;sensor_type;location;lat;lon;timestamp;P1;durP1;ratioP1;P2;durP2;ratioP2
15293;SDS011;74171;52.534;13.436;2024-03-23T00:54:40;11.50;;;3.83;;
15293;SDS011;74171;52.534;13.436;2024-03-23T00:56:43;16.13;;;4.27;;
15293;SDS011;74171;52.534;13.436;2024-03-23T00:58:44;15.60;;;3.93;;
15293;SDS011;74171;52.534;13.436;2024-03-23T01:00:46;20.37;;;4.60;;
15293;SDS011;74171;52.534;13.436;2024-03-23T01:02:47;16.13;;;4.43;;
15293;SDS011;74171;52.534;13.436;2024-03-23T01:04:49;15.13;;;4.00;;
15293;SDS011;74171;52.534;13.436;2024-03-23T01:06:51;20.33;;;5.30;;
15293;SDS011;74171;52.534;13.436;2024-03-23T01:08:53;13.77;;;3.83;;
15293;SDS011;74171;52.534;13.436;2024-03-23T01:10:55;10.43;;;3.87;;
15293;SDS011;74171;52.534;13.436;2024-03-23T01:12:57;15.40;;;4.60;;
15293;SDS011;74171;52.534;13.436;2024-03-23T01:14:58;18.13;;;4.20;;
15293;SDS011;74171;52.534;13.436;2024-03-23T01:16:59;24.30;;;4.37;;
15293;SDS011;74171;52.534;13.436;2024-03-23T01:19:00;14.03;;;3.83;;
15293;SDS011;74171;52.534;13.436;2024-03-23T01:21:03;13.47;;;4.40;;
15293;SDS011;74171;52.534;13.436;2024-03-23T01:25:10;14.53;;;4.63;;
15293;SDS011;74171;52.534;13.436;2024-03-23T01:27:12;11.97;;;3.83;;
15293;SDS011;74171;52.534;13.436;2024-03-23T01:29:13;16.77;;;4.40;;
15293;SDS011;74171;52.534;13.436;2024-03-23T01:31:15;19.93;;;4.67;;
15293;SDS011;74171;52.534;13.436;2024-03-23T01:33:16;16.13;;;4.33;;
15293;SDS011;74171;52.534;13.436;2024-03-23T01:35:18;9.30;;;4.00;;
15293;SDS011;74171;52.534;13.436;2024-03-23T01:37:19;20.33;;;4.80;;
15293;SDS011;74171;52.534;13.436;2024-03-23T01:39:21;19.47;;;4.70;;
15293;SDS011;74171;52.534;13.436;2024-03-23T01:41:25;19.23;;;5.20;;
15293;SDS011;74171;52.534;13.436;2024-03-23T01:43:27;17.97;;;5.20;;
15293;SDS011;74171;52.534;13.436;2024-03-23T01:45:28;15.57;;;4.30;;
15293;SDS011;74171;52.534;13.436;2024-03-23T01:47:31;18.43;;;4.77;;
15293;SDS011;74171;52.534;13.436;2024-03-23T01:49:32;20.60;;;4.47;;
15293;SDS011;74171;52.534;13.436;2024-03-23T01:51:34;18.67;;;4.80;;
15293;SDS011;74171;52.534;13.436;2024-03-23T01:53:35;19.73;;;5.00;;
15293;SDS011;74171;52.534;13.436;2024-03-23T01:55:38;15.90;;;4.60;;
15293;SDS011;74171;52.534;13.436;2024-03-23T01:57:41;16.10;;;4.60;;
15293;SDS011;74171;52.534;13.436;2024-03-23T01:59:43;11.63;;;4.10;;
15293;SDS011;74171;52.534;13.436;2024-03-23T02:01:44;12.60;;;3.83;;
15293;SDS011;74171;52.534;13.436;2024-03-23T02:03:46;21.60;;;4.60;;
15293;SDS011;74171;52.534;13.436;2024-03-23T02:05:47;19.30;;;4.57;;
15293;SDS011;74171;52.534;13.436;2024-03-23T02:07:49;20.53;;;6.33;;
15293;SDS011;74171;52.534;13.436;2024-03-23T02:09:51;15.20;;;4.63;;
15293;SDS011;74171;52.534;13.436;2024-03-23T02:11:54;18.37;;;4.67;;
15293;SDS011;74171;52.534;13.436;2024-03-23T02:13:57;30.73;;;11.67;;
15293;SDS011;74171;52.534;13.436;2024-03-23T02:15:59;18.43;;;7.00;;
15293;SDS011;74171;52.534;13.436;2024-03-23T02:18:00;17.97;;;6.30;;
15293;SDS011;74171;52.534;13.436;2024-03-23T02:20:02;16.63;;;6.13;;
15293;SDS011;74171;52.534;13.436;2024-03-23T02:22:06;15.93;;;5.93;;
15293;SDS011;74171;52.534;13.436;2024-03-23T02:24:12;22.10;;;5.60;;
15293;SDS011;74171;52.534;13.436;2024-03-23T02:26:13;17.80;;;5.87;;
15293;SDS011;74171;52.534;13.436;2024-03-23T02:28:16;12.73;;;5.33;;
15293;SDS011;74171;52.534;13.436;2024-03-23T02:30:17;18.90;;;5.97;;
15293;SDS011;74171;52.534;13.436;2024-03-23T02:32:19;20.40;;;5.47;;
15293;SDS011;74171;52.534;13.436;2024-03-23T02:34:21;12.00;;;4.43;;
15293;SDS011;74171;52.534;13.436;2024-03-23T02:36:24;16.50;;;4.33;;
15293;SDS011;74171;52.534;13.436;2024-03-23T02:38:25;26.23;;;7.83;;
15293;SDS011;74171;52.534;13.436;2024-03-23T02:40:28;16.13;;;5.10;;
15293;SDS011;74171;52.534;13.436;2024-03-23T02:42:30;29.50;;;8.27;;
15293;SDS011;74171;52.534;13.436;2024-03-23T02:44:31;25.53;;;6.57;;
15293;SDS011;74171;52.534;13.436;2024-03-23T02:46:33;18.63;;;5.83;;
15293;SDS011;74171;52.534;13.436;2024-03-23T02:48:34;32.43;;;7.53;;
15293;SDS011;74171;52.534;13.436;2024-03-23T02:50:36;27.17;;;6.93;;
15293;SDS011;74171;52.534;13.436;2024-03-23T02:52:37;27.80;;;6.60;;
15293;SDS011;74171;52.534;13.436;2024-03-23T02:54:39;38.20;;;8.53;;
15293;SDS011;74171;52.534;13.436;2024-03-23T02:56:45;31.60;;;8.40;;
15293;SDS011;74171;52.534;13.436;2024-03-23T02:58:47;34.43;;;10.20;;
15293;SDS011;74171;52.534;13.436;2024-03-23T03:00:48;26.80;;;7.53;;
15293;SDS011;74171;52.534;13.436;2024-03-23T03:02:50;33.83;;;8.57;;
15293;SDS011;74171;52.534;13.436;2024-03-23T03:04:51;17.20;;;6.70;;
15293;SDS011;74171;52.534;13.436;2024-03-23T03:06:53;23.00;;;5.60;;
15293;SDS011;74171;52.534;13.436;2024-03-23T03:08:54;13.20;;;5.23;;
15293;SDS011;74171;52.534;13.436;2024-03-23T03:10:56;20.97;;;7.03;;
15293;SDS011;74171;52.534;13.436;2024-03-23T03:12:58;23.20;;;6.10;;
15293;SDS011;74171;52.534;13.436;2024-03-23T03:15:01;22.77;;;5.67;;
15293;SDS011;74171;52.534;13.436;2024-03-23T03:17:02;19.73;;;5.67;;
15293;SDS011;74171;52.534;13.436;2024-03-23T03:19:04;19.73;;;5.40;;
15293;SDS011;74171;52.534;13.436;2024-03-23T03:21:06;20.73;;;5.20;;
15293;SDS011;74171;52.534;13.436;2024-03-23T03:23:11;20.73;;;5.80;;
15293;SDS011;74171;52.534;13.436;2024-03-23T03:25:12;18.87;;;5.57;;
15293;SDS011;74171;52.534;13.436;2024-03-23T03:27:15;20.60;;;5.37;;
15293;SDS011;74171;52.534;13.436;2024-03-23T03:29:17;23.13;;;6.17;;
15293;SDS011;74171;52.534;13.436;2024-03-23T03:31:19;17.60;;;5.17;;
15293;SDS011;74171;52.534;13.436;2024-03-23T03:33:21;21.53;;;5.47;;
15293;SDS011;74171;52.534;13.436;2024-03-23T03:35:23;16.83;;;5.57;;
15293;SDS011;74171;52.534;13.436;2024-03-23T03:37:24;12.77;;;4.60;;
15293;SDS011;74171;52.534;13.436;2024-03-23T03:39:26;22.87;;;5.90;;
15293;SDS011;74171;52.534;13.436;2024-03-23T03:41:27;21.50;;;5.73;;
15293;SDS011;74171;52.534;13.436;2024-03-23T03:43:30;12.70;;;4.60;;
15293;SDS011;74171;52.534;13.436;2024-03-23T03:45:32;21.47;;;5.10;;
15293;SDS011;74171;52.534;13.436;2024-03-23T03:47:34;16.83;;;4.47;;
15293;SDS011;74171;52.534;13.436;2024-03-23T03:49:35;11.43;;;4.53;;
15293;SDS011;74171;52.534;13.436;2024-03-23T03:51:37;14.77;;;4.67;;
15293;SDS011;74171;52.534;13.436;2024-03-23T03:53:38;15.13;;;4.43;;
15293;SDS011;74171;52.534;13.436;2024-03-23T03:55:41;19.03;;;5.00;;
15293;SDS011;74171;52.534;13.436;2024-03-23T03:57:42;15.63;;;4.80;;
15293;SDS011;74171;52.534;13.436;2024-03-23T03:59:44;15.03;;;4.20;;
15293;SDS011;74171;52.534;13.436;2024-03-23T04:01:46;11.20;;;4.43;;
15293;SDS011;74171;52.534;13.436;2024-03-23T04:03:48;17.50;;;5.23;;
15293;SDS011;74171;52.534;13.436;2024-03-23T04:05:50;18.03;;;4.80;;
15293;SDS011;74171;52.534;13.436;2024-03-23T04:07:52;16.87;;;4.43;;
15293;SDS011;74171;52.534;13.436;2024-03-23T04:09:54;7.13;;;3.80;;
15293;SDS011;74171;52.534;13.436;2024-03-23T04:11:55;8.60;;;3.67;;
15293;SDS011;74171;52.534;13.436;2024-03-23T04:13:57;5.83;;;3.50;;
15293;SDS011;74171;52.534;13.436;2024-03-23T04:15:58;7.73;;;3.07;;
15293;SDS011;74171;52.534;13.436;2024-03-23T04:18:02;12.13;;;3.30;;
15293;SDS011;74171;52.534;13.436;2024-03-23T04:20:03;14.70;;;3.63;;
15293;SDS011;74171;52.534;13.436;2024-03-23T04:22:11;10.80;;;3.57;;
15293;SDS011;74171;52.534;13.436;2024-03-23T04:24:12;8.73;;;3.50;;
15293;SDS011;74171;52.534;13.436;2024-03-23T04:26:16;12.03;;;3.37;;
15293;SDS011;74171;52.534;13.436;2024-03-23T04:28:17;9.67;;;3.50;;
15293;SDS011;74171;52.534;13.436;2024-03-23T04:30:18;11.67;;;3.40;;
15293;SDS011;74171;52.534;13.436;2024-03-23T04:32:21;9.50;;;2.87;;
15293;SDS011;74171;52.534;13.436;2024-03-23T04:34:25;9.63;;;3.43;;
15293;SDS011;74171;52.534;13.436;2024-03-23T04:36:26;11.63;;;2.97;;
15293;SDS011;74171;52.534;13.436;2024-03-23T04:38:28;9.70;;;2.50;;
15293;SDS011;74171;52.534;13.436;2024-03-23T04:40:30;7.97;;;2.93;;
15293;SDS011;74171;52.534;13.436;2024-03-23T04:42:31;13.83;;;3.57;;
15293;SDS011;74171;52.534;13.436;2024-03-23T04:44:33;8.53;;;3.20;;
15293;SDS011;74171;52.534;13.436;2024-03-23T04:46:34;8.93;;;3.10;;
15293;SDS011;74171;52.534;13.436;2024-03-23T04:48:37;9.23;;;3.10;;
15293;SDS011;74171;52.534;13.436;2024-03-23T04:50:40;5.90;;;2.90;;
15293;SDS011;74171;52.534;13.436;2024-03-23T04:52:41;6.77;;;2.40;;
15293;SDS011;74171;52.534;13.436;2024-03-23T04:54:43;7.70;;;2.40;;
15293;SDS011;74171;52.534;13.436;2024-03-23T04:56:46;6.83;;;2.30;;
15293;SDS011;74171;52.534;13.436;2024-03-23T04:58:47;6.37;;;2.30;;
15293;SDS011;74171;52.534;13.436;2024-03-23T05:00:52;9.33;;;2.53;;
15293;SDS011;74171;52.534;13.436;2024-03-23T05:02:56;7.17;;;2.23;;
15293;SDS011;74171;52.534;13.436;2024-03-23T05:04:57;6.63;;;2.57;;
15293;SDS011;74171;52.534;13.436;2024-03-23T05:07:00;4.80;;;2.10;;
15293;SDS011;74171;52.534;13.436;2024-03-23T05:09:01;4.93;;;2.30;;
15293;SDS011;74171;52.534;13.436;2024-03-23T05:11:06;7.27;;;2.40;;
15293;SDS011;74171;52.534;13.436;2024-03-23T05:13:08;10.10;;;2.63;;
15293;SDS011;74171;52.534;13.436;2024-03-23T05:15:10;6.70;;;2.67;;
15293;SDS011;74171;52.534;13.436;2024-03-23T05:17:11;8.23;;;2.37;;
15293;SDS011;74171;52.534;13.436;2024-03-23T05:19:12;4.70;;;2.30;;
15293;SDS011;74171;52.534;13.436;2024-03-23T05:21:14;6.17;;;2.40;;
15293;SDS011;74171;52.534;13.436;2024-03-23T05:23:18;6.70;;;2.50;;
15293;SDS011;74171;52.534;13.436;2024-03-23T05:25:20;5.70;;;2.67;;
15293;SDS011;74171;52.534;13.436;2024-03-23T05:27:21;5.47;;;2.70;;
15293;SDS011;74171;52.534;13.436;2024-03-23T05:29:24;4.37;;;2.10;;
15293;SDS011;74171;52.534;13.436;2024-03-23T05:31:25;9.83;;;2.63;;
15293;SDS011;74171;52.534;13.436;2024-03-23T05:33:27;6.50;;;2.30;;
15293;SDS011;74171;52.534;13.436;2024-03-23T05:35:28;6.63;;;2.40;;
15293;SDS011;74171;52.534;13.436;2024-03-23T05:37:30;7.63;;;2.77;;
15293;SDS011;74171;52.534;13.436;2024-03-23T05:39:35;8.60;;;2.43;;
15293;SDS011;74171;52.534;13.436;2024-03-23T05:41:37;7.70;;;2.73;;
15293;SDS011;74171;52.534;13.436;2024-03-23T05:43:38;8.80;;;2.87;;
15293;SDS011;74171;52.534;13.436;2024-03-23T05:45:40;10.13;;;2.57;;
15293;SDS011;74171;52.534;13.436;2024-03-23T05:47:42;6.23;;;2.97;;
15293;SDS011;74171;52.534;13.436;2024-03-23T05:49:45;11.83;;;3.47;;
15293;SDS011;74171;52.534;13.436;2024-03-23T05:51:46;12.73;;;3.10;;
15293;SDS011;74171;52.534;13.436;2024-03-23T05:53:49;15.37;;;3.53;;
15293;SDS011;74171;52.534;13.436;2024-03-23T05:55:59;8.43;;;3.57;;
15293;SDS011;74171;52.534;13.436;2024-03-23T05:58:04;9.90;;;3.37;;
15293;SDS011;74171;52.534;13.436;2024-03-23T06:00:06;5.93;;;2.90;;
15293;SDS011;74171;52.534;13.436;2024-03-23T06:02:16;9.33;;;3.83;;
15293;SDS011;74171;52.534;13.436;2024-03-23T06:04:17;13.57;;;3.93;;
15293;SDS011;74171;52.534;13.436;2024-03-23T06:06:19;14.83;;;3.73;;
15293;SDS011;74171;52.534;13.436;2024-03-23T06:08:20;8.90;;;4.03;;
15293;SDS011;74171;52.534;13.436;2024-03-23T06:10:22;12.30;;;3.80;;
15293;SDS011;74171;52.534;13.436;2024-03-23T06:12:25;8.70;;;3.93;;
15293;SDS011;74171;52.534;13.436;2024-03-23T06:14:27;10.87;;;4.57;;
15293;SDS011;74171;52.534;13.436;2024-03-23T06:16:28;8.60;;;3.57;;
15293;SDS011;74171;52.534;13.436;2024-03-23T06:18:31;15.47;;;4.70;;
15293;SDS011;74171;52.534;13.436;2024-03-23T06:20:32;8.97;;;3.53;;
15293;SDS011;74171;52.534;13.436;2024-03-23T06:22:34;11.93;;;3.70;;
15293;SDS011;74171;52.534;13.436;2024-03-23T06:24:35;10.20;;;3.67;;
15293;SDS011;74171;52.534;13.436;2024-03-23T06:26:36;8.40;;;3.83;;
15293;SDS011;74171;52.534;13.436;2024-03-23T06:28:39;11.60;;;4.07;;
15293;SDS011;74171;52.534;13.436;2024-03-23T06:30:41;8.43;;;3.23;;
15293;SDS011;74171;52.534;13.436;2024-03-23T06:32:42;8.23;;;3.50;;
15293;SDS011;74171;52.534;13.436;2024-03-23T06:34:44;9.93;;;3.57;;
15293;SDS011;74171;52.534;13.436;2024-03-23T06:36:46;9.77;;;3.37;;
15293;SDS011;74171;52.534;13.436;2024-03-23T06:38:49;9.07;;;2.77;;
15293;SDS011;74171;52.534;13.436;2024-03-23T06:40:50;10.00;;;3.00;;
15293;SDS011;74171;52.534;13.436;2024-03-23T06:42:53;12.03;;;3.60;;
15293;SDS011;74171;52.534;13.436;2024-03-23T06:44:55;12.13;;;3.27;;
15293;SDS011;74171;52.534;13.436;2024-03-23T06:46:57;10.90;;;3.30;;
15293;SDS011;74171;52.534;13.436;2024-03-23T06:48:59;10.23;;;3.13;;
15293;SDS011;74171;52.534;13.436;2024-03-23T06:51:01;5.70;;;2.80;;
15293;SDS011;74171;52.534;13.436;2024-03-23T06:53:02;9.17;;;3.13;;
15293;SDS011;74171;52.534;13.436;2024-03-23T06:55:07;5.17;;;2.83;;
15293;SDS011;74171;52.534;13.436;2024-03-23T06:57:09;10.57;;;3.20;;
15293;SDS011;74171;52.534;13.436;2024-03-23T06:59:12;11.23;;;3.40;;
15293;SDS011;74171;52.534;13.436;2024-03-23T07:01:14;9.07;;;3.63;;
15293;SDS011;74171;52.534;13.436;2024-03-23T07:03:16;6.30;;;3.23;;
15293;SDS011;74171;52.534;13.436;2024-03-23T07:05:18;4.20;;;2.60;;
15293;SDS011;74171;52.534;13.436;2024-03-23T07:07:21;8.17;;;2.97;;
15293;SDS011;74171;52.534;13.436;2024-03-23T07:09:22;11.77;;;3.37;;
15293;SDS011;74171;52.534;13.436;2024-03-23T07:11:26;7.47;;;3.10;;
15293;SDS011;74171;52.534;13.436;2024-03-23T07:13:27;7.63;;;3.17;;
15293;SDS011;74171;52.534;13.436;2024-03-23T07:15:29;7.90;;;2.73;;
15293;SDS011;74171;52.534;13.436;2024-03-23T07:17:33;12.73;;;3.60;;
15293;SDS011;74171;52.534;13.436;2024-03-23T07:19:35;9.13;;;3.40;;
15293;SDS011;74171;52.534;13.436;2024-03-23T07:21:36;9.43;;;3.57;;
15293;SDS011;74171;52.534;13.436;2024-03-23T07:23:41;7.10;;;2.90;;
15293;SDS011;74171;52.534;13.436;2024-03-23T07:25:45;11.83;;;3.43;;
15293;SDS011;74171;52.534;13.436;2024-03-23T07:27:47;5.17;;;3.10;;
15293;SDS011;74171;52.534;13.436;2024-03-23T07:29:48;7.23;;;3.27;;
15293;SDS011;74171;52.534;13.436;2024-03-23T07:31:50;6.63;;;3.20;;
15293;SDS011;74171;52.534;13.436;2024-03-23T07:33:52;7.17;;;3.00;;
15293;SDS011;74171;52.534;13.436;2024-03-23T07:35:55;8.83;;;3.57;;
15293;SDS011;74171;52.534;13.436;2024-03-23T07:37:56;5.40;;;2.90;;
15293;SDS011;74171;52.534;13.436;2024-03-23T07:40:00;8.53;;;3.13;;
15293;SDS011;74171;52.534;13.436;2024-03-23T07:42:01;8.43;;;2.67;;
15293;SDS011;74171;52.534;13.436;2024-03-23T07:44:04;9.10;;;3.90;;
15293;SDS011;74171;52.534;13.436;2024-03-23T07:46:05;10.20;;;3.30;;
15293;SDS011;74171;52.534;13.436;2024-03-23T07:48:07;8.50;;;3.47;;
15293;SDS011;74171;52.534;13.436;2024-03-23T07:50:09;5.17;;;2.60;;
15293;SDS011;74171;52.534;13.436;2024-03-23T07:52:11;8.07;;;2.93;;
15293;SDS011;74171;52.534;13.436;2024-03-23T07:54:12;10.50;;;3.30;;
15293;SDS011;74171;52.534;13.436;2024-03-23T07:56:14;7.30;;;3.17;;
15293;SDS011;74171;52.534;13.436;2024-03-23T07:58:16;8.93;;;3.53;;
15293;SDS011;74171;52.534;13.436;2024-03-23T08:00:20;11.17;;;3.83;;
15293;SDS011;74171;52.534;13.436;2024-03-23T08:02:21;10.93;;;3.17;;
15293;SDS011;74171;52.534;13.436;2024-03-23T08:04:23;7.83;;;3.60;;
15293;SDS011;74171;52.534;13.436;2024-03-23T08:06:25;8.80;;;3.27;;
15293;SDS011;74171;52.534;13.436;2024-03-23T08:08:27;4.57;;;3.00;;
15293;SDS011;74171;52.534;13.436;2024-03-23T08:10:28;7.17;;;2.60;;
15293;SDS011;74171;52.534;13.436;2024-03-23T08:12:30;5.13;;;2.77;;
15293;SDS011;74171;52.534;13.436;2024-03-23T08:14:30;7.50;;;3.63;;
15293;SDS011;74171;52.534;13.436;2024-03-23T08:16:32;5.93;;;2.83;;
15293;SDS011;74171;52.534;13.436;2024-03-23T08:18:34;20.60;;;6.97;;
15293;SDS011;74171;52.534;13.436;2024-03-23T08:20:36;7.17;;;3.17;;
15293;SDS011;74171;52.534;13.436;2024-03-23T08:22:38;7.43;;;3.00;;
15293;SDS011;74171;52.534;13.436;2024-03-23T08:24:40;5.77;;;2.67;;
15293;SDS011;74171;52.534;13.436;2024-03-23T08:26:40;7.87;;;3.33;;
15293;SDS011;74171;52.534;13.436;2024-03-23T08:28:42;11.50;;;2.90;;
15293;SDS011;74171;52.534;13.436;2024-03-23T08:30:43;7.17;;;2.50;;
15293;SDS011;74171;52.534;13.436;2024-03-23T08:32:45;7.00;;;2.50;;
15293;SDS011;74171;52.534;13.436;2024-03-23T08:34:46;5.93;;;2.60;;
15293;SDS011;74171;52.534;13.436;2024-03-23T08:36:48;5.20;;;2.57;;
15293;SDS011;74171;52.534;13.436;2024-03-23T08:38:50;8.73;;;2.73;;
15293;SDS011;74171;52.534;13.436;2024-03-23T08:40:57;6.83;;;2.87;;
15293;SDS011;74171;52.534;13.436;2024-03-23T08:42:58;7.40;;;3.33;;
15293;SDS011;74171;52.534;13.436;2024-03-23T08:45:00;10.20;;;3.20;;
15293;SDS011;74171;52.534;13.436;2024-03-23T08:47:01;9.70;;;3.57;;
15293;SDS011;74171;52.534;13.436;2024-03-23T08:49:03;8.73;;;3.80;;
15293;SDS011;74171;52.534;13.436;2024-03-23T08:51:04;10.13;;;3.20;;
15293;SDS011;74171;52.534;13.436;2024-03-23T08:53:09;10.53;;;4.73;;
15293;SDS011;74171;52.534;13.436;2024-03-23T08:55:12;12.33;;;4.83;;
15293;SDS011;74171;52.534;13.436;2024-03-23T08:59:42;6.47;;;2.60;;
15293;SDS011;74171;52.534;13.436;2024-03-23T09:01:44;8.40;;;3.20;;
15293;SDS011;74171;52.534;13.436;2024-03-23T09:03:45;4.72;;;2.85;;
15293;SDS011;74171;52.534;13.436;2024-03-23T09:05:47;7.53;;;2.53;;
15293;SDS011;74171;52.534;13.436;2024-03-23T09:07:48;7.63;;;2.73;;
15293;SDS011;74171;52.534;13.436;2024-03-23T09:09:49;7.50;;;3.30;;
15293;SDS011;74171;52.534;13.436;2024-03-23T09:11:53;6.28;;;2.67;;
15293;SDS011;74171;52.534;13.436;2024-03-23T09:13:54;7.28;;;3.00;;
15293;SDS011;74171;52.534;13.436;2024-03-23T09:15:56;8.25;;;3.88;;
15293;SDS011;74171;52.534;13.436;2024-03-23T09:17:58;5.32;;;2.50;;
15293;SDS011;74171;52.534;13.436;2024-03-23T09:20:00;6.28;;;2.47;;
15293;SDS011;74171;52.534;13.436;2024-03-23T09:22:02;5.35;;;2.88;;
15293;SDS011;74171;52.534;13.436;2024-03-23T09:24:04;6.18;;;2.72;;
15293;SDS011;74171;52.534;13.436;2024-03-23T09:26:06;9.77;;;3.17;;
15293;SDS011;74171;52.534;13.436;2024-03-23T09:28:10;4.38;;;2.60;;
15293;SDS011;74171;52.534;13.436;2024-03-23T09:30:12;5.60;;;2.00;;
15293;SDS011;74171;52.534;13.436;2024-03-23T09:32:14;3.47;;;2.10;;
15293;SDS011;74171;52.534;13.436;2024-03-23T09:34:17;9.57;;;2.50;;
15293;SDS011;74171;52.534;13.436;2024-03-23T09:36:18;5.45;;;2.40;;
15293;SDS011;74171;52.534;13.436;2024-03-23T09:38:20;7.00;;;2.67;;
15293;SDS011;74171;52.534;13.436;2024-03-23T09:40:21;5.10;;;2.42;;
15293;SDS011;74171;52.534;13.436;2024-03-23T09:42:24;3.90;;;2.63;;
15293;SDS011;74171;52.534;13.436;2024-03-23T09:44:31;4.25;;;2.35;;
15293;SDS011;74171;52.534;13.436;2024-03-23T09:46:33;4.05;;;2.45;;
15293;SDS011;74171;52.534;13.436;2024-03-23T09:48:36;5.85;;;2.50;;
15293;SDS011;74171;52.534;13.436;2024-03-23T09:50:39;8.20;;;2.97;;
15293;SDS011;74171;52.534;13.436;2024-03-23T09:52:40;4.85;;;2.50;;
15293;SDS011;74171;52.534;13.436;2024-03-23T09:54:43;7.28;;;2.63;;
15293;SDS011;74171;52.534;13.436;2024-03-23T09:56:44;6.32;;;2.33;;
15293;SDS011;74171;52.534;13.436;2024-03-23T09:58:46;5.82;;;2.78;;
15293;SDS011;74171;52.534;13.436;2024-03-23T10:00:48;8.43;;;2.80;;
15293;SDS011;74171;52.534;13.436;2024-03-23T10:02:51;7.78;;;3.15;;
15293;SDS011;74171;52.534;13.436;2024-03-23T10:04:52;7.57;;;2.95;;
15293;SDS011;74171;52.534;13.436;2024-03-23T10:06:54;5.70;;;2.70;;
15293;SDS011;74171;52.534;13.436;2024-03-23T10:08:56;8.77;;;2.90;;
15293;SDS011;74171;52.534;13.436;2024-03-23T10:10:58;9.05;;;2.60;;
15293;SDS011;74171;52.534;13.436;2024-03-23T10:13:23;8.43;;;2.90;;
15293;SDS011;74171;52.534;13.436;2024-03-23T10:15:26;11.43;;;2.95;;
15293;SDS011;74171;52.534;13.436;2024-03-23T10:17:29;6.45;;;2.55;;
15293;SDS011;74171;52.534;13.436;2024-03-23T10:19:31;7.13;;;2.88;;
15293;SDS011;74171;52.534;13.436;2024-03-23T10:21:33;7.78;;;2.83;;
15293;SDS011;74171;52.534;13.436;2024-03-23T10:23:38;5.18;;;2.10;;
15293;SDS011;74171;52.534;13.436;2024-03-23T10:25:41;7.85;;;3.00;;
15293;SDS011;74171;52.534;13.436;2024-03-23T10:27:43;8.45;;;2.47;;
15293;SDS011;74171;52.534;13.436;2024-03-23T10:29:47;11.00;;;3.25;;
15293;SDS011;74171;52.534;13.436;2024-03-23T10:31:49;7.20;;;2.45;;
15293;SDS011;74171;52.534;13.436;2024-03-23T10:33:52;10.07;;;3.00;;
15293;SDS011;74171;52.534;13.436;2024-03-23T10:35:55;7.28;;;3.10;;
15293;SDS011;74171;52.534;13.436;2024-03-23T10:37:56;10.43;;;3.07;;
15293;SDS011;74171;52.534;13.436;2024-03-23T10:39:59;14.77;;;5.47;;
15293;SDS011;74171;52.534;13.436;2024-03-23T10:42:01;15.07;;;5.35;;
15293;SDS011;74171;52.534;13.436;2024-03-23T10:44:04;13.77;;;4.45;;
15293;SDS011;74171;52.534;13.436;2024-03-23T10:46:05;8.07;;;3.13;;
15293;SDS011;74171;52.534;13.436;2024-03-23T10:48:08;9.37;;;3.67;;
15293;SDS011;74171;52.534;13.436;2024-03-23T10:50:11;7.30;;;3.80;;
15293;SDS011;74171;52.534;13.436;2024-03-23T10:52:12;14.07;;;4.57;;
15293;SDS011;74171;52.534;13.436;2024-03-23T10:54:15;11.63;;;3.83;;
15293;SDS011;74171;52.534;13.436;2024-03-23T10:56:16;9.90;;;3.60;;
15293;SDS011;74171;52.534;13.436;2024-03-23T10:58:18;7.70;;;3.73;;
15293;SDS011;74171;52.534;13.436;2024-03-23T11:00:20;10.67;;;3.70;;
15293;SDS011;74171;52.534;13.436;2024-03-23T11:02:25;9.90;;;3.70;;
15293;SDS011;74171;52.534;13.436;2024-03-23T11:04:30;12.30;;;4.97;;
15293;SDS011;74171;52.534;13.436;2024-03-23T11:06:38;10.40;;;4.67;;
15293;SDS011;74171;52.534;13.436;2024-03-23T11:08:42;13.50;;;4.30;;
15293;SDS011;74171;52.534;13.436;2024-03-23T11:10:43;11.67;;;3.47;;
15293;SDS011;74171;52.534;13.436;2024-03-23T11:12:45;11.13;;;3.97;;
15293;SDS011;74171;52.534;13.436;2024-03-23T11:14:46;6.80;;;3.50;;
15293;SDS011;74171;52.534;13.436;2024-03-23T11:16:55;8.57;;;3.33;;
15293;SDS011;74171;52.534;13.436;2024-03-23T11:21:56;8.50;;;3.30;;
15293;SDS011;74171;52.534;13.436;2024-03-23T11:24:14;6.30;;;2.87;;
15293;SDS011;74171;52.534;13.436;2024-03-23T11:26:15;10.07;;;2.83;;
15293;SDS011;74171;52.534;13.436;2024-03-23T11:28:20;10.07;;;3.20;;
15293;SDS011;74171;52.534;13.436;2024-03-23T11:30:23;6.40;;;2.60;;
15293;SDS011;74171;52.534;13.436;2024-03-23T11:32:26;7.73;;;3.43;;
15293;SDS011;74171;52.534;13.436;2024-03-23T11:34:28;6.63;;;2.83;;
15293;SDS011;74171;52.534;13.436;2024-03-23T11:36:31;8.13;;;2.77;;
15293;SDS011;74171;52.534;13.436;2024-03-23T11:38:37;8.80;;;3.37;;
15293;SDS011;74171;52.534;13.436;2024-03-23T11:40:40;4.90;;;3.00;;
15293;SDS011;74171;52.534;13.436;2024-03-23T11:42:47;12.27;;;4.03;;
15293;SDS011;74171;52.534;13.436;2024-03-23T11:44:57;9.13;;;3.37;;
15293;SDS011;74171;52.534;13.436;2024-03-23T11:47:06;10.40;;;3.67;;
15293;SDS011;74171;52.534;13.436;2024-03-23T11:49:20;11.23;;;3.50;;
15293;SDS011;74171;52.534;13.436;2024-03-23T11:51:22;5.80;;;2.97;;
15293;SDS011;74171;52.534;13.436;2024-03-23T11:53:25;9.23;;;3.33;;
15293;SDS011;74171;52.534;13.436;2024-03-23T11:55:29;9.73;;;3.63;;
15293;SDS011;74171;52.534;13.436;2024-03-23T11:57:31;6.47;;;3.57;;
15293;SDS011;74171;52.534;13.436;2024-03-23T11:59:33;9.90;;;3.50;;
15293;SDS011;74171;52.534;13.436;2024-03-23T12:01:36;10.87;;;4.20;;
15293;SDS011;74171;52.534;13.436;2024-03-23T12:03:37;8.50;;;3.03;;
15293;SDS011;74171;52.534;13.436;2024-03-23T12:05:40;7.97;;;2.90;;
15293;SDS011;74171;52.534;13.436;2024-03-23T12:07:40;5.47;;;2.70;;
15293;SDS011;74171;52.534;13.436;2024-03-23T12:09:43;11.50;;;3.80;;
15293;SDS011;74171;52.534;13.436;2024-03-23T12:11:54;10.83;;;3.10;;
15293;SDS011;74171;52.534;13.436;2024-03-23T12:13:57;13.47;;;4.00;;
15293;SDS011;74171;52.534;13.436;2024-03-23T12:16:09;8.37;;;2.97;;
15293;SDS011;74171;52.534;13.436;2024-03-23T12:18:12;11.50;;;3.43;;
15293;SDS011;74171;52.534;13.436;2024-03-23T12:20:14;6.63;;;3.03;;
15293;SDS011;74171;52.534;13.436;2024-03-23T12:22:22;5.80;;;3.10;;
15293;SDS011;74171;52.534;13.436;2024-03-23T12:24:27;13.70;;;2.90;;
15293;SDS011;74171;52.534;13.436;2024-03-23T12:26:30;9.50;;;2.90;;
15293;SDS011;74171;52.534;13.436;2024-03-23T12:28:32;12.93;;;3.30;;
15293;SDS011;74171;52.534;13.436;2024-03-23T12:30:41;7.23;;;3.30;;
15293;SDS011;74171;52.534;13.436;2024-03-23T12:32:42;7.80;;;3.20;;
15293;SDS011;74171;52.534;13.436;2024-03-23T12:34:48;5.17;;;2.30;;
15293;SDS011;74171;52.534;13.436;2024-03-23T12:36:49;5.77;;;2.70;;
15293;SDS011;74171;52.534;13.436;2024-03-23T12:38:51;9.80;;;3.17;;
15293;SDS011;74171;52.534;13.436;2024-03-23T12:40:52;10.20;;;3.13;;
15293;SDS011;74171;52.534;13.436;2024-03-23T12:42:54;10.87;;;2.93;;
15293;SDS011;74171;52.534;13.436;2024-03-23T12:44:58;5.57;;;2.97;;
15293;SDS011;74171;52.534;13.436;2024-03-23T12:47:01;9.10;;;2.97;;
15293;SDS011;74171;52.534;13.436;2024-03-23T12:49:03;6.40;;;2.63;;
15293;SDS011;74171;52.534;13.436;2024-03-23T12:51:06;10.73;;;3.53;;
15293;SDS011;74171;52.534;13.436;2024-03-23T12:53:07;8.73;;;2.43;;
15293;SDS011;74171;52.534;13.436;2024-03-23T12:55:10;7.80;;;2.70;;
15293;SDS011;74171;52.534;13.436;2024-03-23T12:57:11;8.57;;;2.77;;
15293;SDS011;74171;52.534;13.436;2024-03-23T12:59:13;5.87;;;2.60;;
15293;SDS011;74171;52.534;13.436;2024-03-23T13:01:15;10.03;;;3.37;;
15293;SDS011;74171;52.534;13.436;2024-03-23T13:03:17;4.63;;;2.63;;